sensor_id;sensor_type;location;lat;lon;timestamp;temperature;humidity
65378;SHT31;51982;51.042;13.806;2023-04-03T00:05:08;6.14;68.09
65378;SHT31;51982;51.042;13.806;2023-04-03T00:07:37;6.07;67.99
65378;SHT31;51982;51.042;13.806;2023-04-03T00:10:22;6.11;68.09
65378;SHT31;51982;51.042;13.806;2023-04-03T00:16:09;5.91;68.17
65378;SHT31;51982;51.042;13.806;2023-04-03T00:46:23;5.75;68.04
65378;SHT31;51982;51.042;13.806;2023-04-03T00:49:40;5.93;68.39
65378;SHT31;51982;51.042;13.806;2023-04-03T00:59:56;6.00;67.89
65378;SHT31;51982;51.042;13.806;2023-04-03T01:06:09;6.07;68.09
65378;SHT31;51982;51.042;13.806;2023-04-03T01:09:13;6.04;68.12
65378;SHT31;51982;51.042;13.806;2023-04-03T01:16:04;6.22;67.91
65378;SHT31;51982;51.042;13.806;2023-04-03T01:19:12;6.35;68.25
65378;SHT31;51982;51.042;13.806;2023-04-03T01:32:51;6.25;67.92
65378;SHT31;51982;51.042;13.806;2023-04-03T01:39:20;6.39;67.50
65378;SHT31;51982;51.042;13.806;2023-04-03T01:48:39;6.43;67.83
65378;SHT31;51982;51.042;13.806;2023-04-03T01:51:26;6.39;67.85
65378;SHT31;51982;51.042;13.806;2023-04-03T01:54:47;6.26;67.17
65378;SHT31;51982;51.042;13.806;2023-04-03T02:01:00;6.28;66.96
65378;SHT31;51982;51.042;13.806;2023-04-03T02:04:21;6.11;67.42
65378;SHT31;51982;51.042;13.806;2023-04-03T02:10:32;6.01;67.15
65378;SHT31;51982;51.042;13.806;2023-04-03T02:13:12;6.01;67.59
65378;SHT31;51982;51.042;13.806;2023-04-03T02:30:23;5.87;67.20
65378;SHT31;51982;51.042;13.806;2023-04-03T02:34:14;5.95;67.17
65378;SHT31;51982;51.042;13.806;2023-04-03T02:36:42;5.93;67.29
65378;SHT31;51982;51.042;13.806;2023-04-03T02:39:22;5.97;67.63
65378;SHT31;51982;51.042;13.806;2023-04-03T02:42:05;5.69;66.98
65378;SHT31;51982;51.042;13.806;2023-04-03T02:44:42;5.53;67.12
65378;SHT31;51982;51.042;13.806;2023-04-03T02:47:17;5.39;67.51
65378;SHT31;51982;51.042;13.806;2023-04-03T02:49:47;5.57;67.52
65378;SHT31;51982;51.042;13.806;2023-04-03T02:52:56;5.64;67.75
65378;SHT31;51982;51.042;13.806;2023-04-03T02:59:17;5.60;67.77
65378;SHT31;51982;51.042;13.806;2023-04-03T03:01:56;5.64;67.77
65378;SHT31;51982;51.042;13.806;2023-04-03T03:04:50;5.40;67.51
65378;SHT31;51982;51.042;13.806;2023-04-03T03:25:59;4.69;69.28
65378;SHT31;51982;51.042;13.806;2023-04-03T03:40:12;4.60;69.99
65378;SHT31;51982;51.042;13.806;2023-04-03T04:07:21;4.36;71.15
65378;SHT31;51982;51.042;13.806;2023-04-03T04:10:04;4.21;71.21
65378;SHT31;51982;51.042;13.806;2023-04-03T04:31:12;3.71;72.84
65378;SHT31;51982;51.042;13.806;2023-04-03T04:37:46;3.71;73.00
65378;SHT31;51982;51.042;13.806;2023-04-03T04:43:52;3.81;72.43
65378;SHT31;51982;51.042;13.806;2023-04-03T04:52:59;3.90;72.36
65378;SHT31;51982;51.042;13.806;2023-04-03T05:28:21;4.00;72.90
65378;SHT31;51982;51.042;13.806;2023-04-03T05:48:55;4.09;72.99
65378;SHT31;51982;51.042;13.806;2023-04-03T05:51:45;4.07;73.10
65378;SHT31;51982;51.042;13.806;2023-04-03T05:54:31;4.04;73.13
65378;SHT31;51982;51.042;13.806;2023-04-03T06:01:12;4.13;72.95
65378;SHT31;51982;51.042;13.806;2023-04-03T06:03:43;3.99;72.95
65378;SHT31;51982;51.042;13.806;2023-04-03T06:06:19;4.00;73.35
65378;SHT31;51982;51.042;13.806;2023-04-03T06:08:58;4.09;73.18
65378;SHT31;51982;51.042;13.806;2023-04-03T06:11:32;4.10;72.93
65378;SHT31;51982;51.042;13.806;2023-04-03T06:14:00;4.16;72.93
65378;SHT31;51982;51.042;13.806;2023-04-03T06:16:26;4.26;72.90
65378;SHT31;51982;51.042;13.806;2023-04-03T06:18:51;4.53;72.95
65378;SHT31;51982;51.042;13.806;2023-04-03T06:21:16;4.48;72.48
65378;SHT31;51982;51.042;13.806;2023-04-03T06:23:41;4.45;71.85
65378;SHT31;51982;51.042;13.806;2023-04-03T06:26:07;4.60;72.45
65378;SHT31;51982;51.042;13.806;2023-04-03T06:28:32;4.75;71.57
65378;SHT31;51982;51.042;13.806;2023-04-03T06:30:57;4.85;71.63
65378;SHT31;51982;51.042;13.806;2023-04-03T06:33:22;4.93;71.47
65378;SHT31;51982;51.042;13.806;2023-04-03T06:35:48;5.02;71.41
65378;SHT31;51982;51.042;13.806;2023-04-03T06:38:13;4.92;70.92
65378;SHT31;51982;51.042;13.806;2023-04-03T06:40:38;4.78;71.31
65378;SHT31;51982;51.042;13.806;2023-04-03T06:43:04;5.00;71.25
65378;SHT31;51982;51.042;13.806;2023-04-03T06:45:30;4.98;71.04
65378;SHT31;51982;51.042;13.806;2023-04-03T06:47:55;5.08;70.97
65378;SHT31;51982;51.042;13.806;2023-04-03T06:50:20;5.20;70.96
65378;SHT31;51982;51.042;13.806;2023-04-03T06:52:46;5.15;70.20
65378;SHT31;51982;51.042;13.806;2023-04-03T06:55:11;5.26;70.32
65378;SHT31;51982;51.042;13.806;2023-04-03T06:57:36;4.98;70.58
65378;SHT31;51982;51.042;13.806;2023-04-03T07:00:04;5.12;70.42
65378;SHT31;51982;51.042;13.806;2023-04-03T07:02:29;4.99;70.68
65378;SHT31;51982;51.042;13.806;2023-04-03T07:04:54;4.71;70.67
65378;SHT31;51982;51.042;13.806;2023-04-03T07:07:20;4.61;71.00
65378;SHT31;51982;51.042;13.806;2023-04-03T07:09:45;4.87;71.03
65378;SHT31;51982;51.042;13.806;2023-04-03T07:12:13;4.98;70.95
65378;SHT31;51982;51.042;13.806;2023-04-03T07:14:38;5.12;70.54
65378;SHT31;51982;51.042;13.806;2023-04-03T07:17:03;4.91;70.80
65378;SHT31;51982;51.042;13.806;2023-04-03T07:19:28;5.11;70.47
65378;SHT31;51982;51.042;13.806;2023-04-03T07:21:54;4.88;70.77
65378;SHT31;51982;51.042;13.806;2023-04-03T07:24:19;4.96;71.00
65378;SHT31;51982;51.042;13.806;2023-04-03T07:26:49;5.05;70.98
65378;SHT31;51982;51.042;13.806;2023-04-03T07:29:14;5.05;70.68
65378;SHT31;51982;51.042;13.806;2023-04-03T07:31:39;4.91;70.92
65378;SHT31;51982;51.042;13.806;2023-04-03T07:34:06;4.91;70.85
65378;SHT31;51982;51.042;13.806;2023-04-03T07:36:31;5.05;70.53
65378;SHT31;51982;51.042;13.806;2023-04-03T07:38:58;5.05;71.00
65378;SHT31;51982;51.042;13.806;2023-04-03T07:41:23;5.20;70.50
65378;SHT31;51982;51.042;13.806;2023-04-03T07:43:49;5.25;69.90
65378;SHT31;51982;51.042;13.806;2023-04-03T07:46:15;5.12;69.99
65378;SHT31;51982;51.042;13.806;2023-04-03T07:48:40;5.00;70.15
65378;SHT31;51982;51.042;13.806;2023-04-03T07:51:05;5.09;70.73
65378;SHT31;51982;51.042;13.806;2023-04-03T07:53:31;5.04;70.34
65378;SHT31;51982;51.042;13.806;2023-04-03T07:55:58;5.30;69.97
65378;SHT31;51982;51.042;13.806;2023-04-03T07:58:23;5.43;69.89
65378;SHT31;51982;51.042;13.806;2023-04-03T08:00:49;5.29;69.99
65378;SHT31;51982;51.042;13.806;2023-04-03T08:03:15;5.26;70.20
65378;SHT31;51982;51.042;13.806;2023-04-03T08:05:44;5.29;70.25
65378;SHT31;51982;51.042;13.806;2023-04-03T08:08:15;5.44;69.87
65378;SHT31;51982;51.042;13.806;2023-04-03T08:10:41;5.56;69.78
65378;SHT31;51982;51.042;13.806;2023-04-03T08:13:07;5.56;69.77
65378;SHT31;51982;51.042;13.806;2023-04-03T08:15:32;5.51;70.27
65378;SHT31;51982;51.042;13.806;2023-04-03T08:17:58;5.66;69.91
65378;SHT31;51982;51.042;13.806;2023-04-03T08:20:24;5.81;69.62
65378;SHT31;51982;51.042;13.806;2023-04-03T08:22:49;5.98;69.38
65378;SHT31;51982;51.042;13.806;2023-04-03T08:25:15;5.98;69.12
65378;SHT31;51982;51.042;13.806;2023-04-03T08:27:40;5.94;69.37
65378;SHT31;51982;51.042;13.806;2023-04-03T08:30:06;6.10;69.23
65378;SHT31;51982;51.042;13.806;2023-04-03T08:32:33;6.22;68.96
65378;SHT31;51982;51.042;13.806;2023-04-03T08:34:59;6.22;68.69
65378;SHT31;51982;51.042;13.806;2023-04-03T08:37:25;6.25;68.64
65378;SHT31;51982;51.042;13.806;2023-04-03T08:39:51;6.24;68.47
65378;SHT31;51982;51.042;13.806;2023-04-03T08:42:33;6.17;68.72
65378;SHT31;51982;51.042;13.806;2023-04-03T08:45:40;6.12;68.42
65378;SHT31;51982;51.042;13.806;2023-04-03T08:48:35;6.05;68.55
65378;SHT31;51982;51.042;13.806;2023-04-03T08:51:05;6.24;68.74
65378;SHT31;51982;51.042;13.806;2023-04-03T08:53:34;6.29;68.39
65378;SHT31;51982;51.042;13.806;2023-04-03T08:56:05;6.15;67.98
65378;SHT31;51982;51.042;13.806;2023-04-03T08:58:42;6.25;68.27
65378;SHT31;51982;51.042;13.806;2023-04-03T09:01:20;6.34;68.31
65378;SHT31;51982;51.042;13.806;2023-04-03T09:03:46;6.32;68.36
65378;SHT31;51982;51.042;13.806;2023-04-03T09:06:26;6.26;68.35
65378;SHT31;51982;51.042;13.806;2023-04-03T09:09:23;6.38;68.52
65378;SHT31;51982;51.042;13.806;2023-04-03T09:12:17;6.46;68.10
65378;SHT31;51982;51.042;13.806;2023-04-03T09:15:06;6.57;68.03
65378;SHT31;51982;51.042;13.806;2023-04-03T09:22:32;6.96;68.20
65378;SHT31;51982;51.042;13.806;2023-04-03T09:25:13;7.04;67.97
65378;SHT31;51982;51.042;13.806;2023-04-03T09:27:40;7.00;67.46
65378;SHT31;51982;51.042;13.806;2023-04-03T09:30:06;7.00;66.69
65378;SHT31;51982;51.042;13.806;2023-04-03T09:32:34;6.97;67.03
65378;SHT31;51982;51.042;13.806;2023-04-03T09:35:04;6.96;67.04
65378;SHT31;51982;51.042;13.806;2023-04-03T09:40:05;7.04;66.57
65378;SHT31;51982;51.042;13.806;2023-04-03T09:42:31;7.01;66.40
65378;SHT31;51982;51.042;13.806;2023-04-03T09:45:02;7.10;66.78
65378;SHT31;51982;51.042;13.806;2023-04-03T09:47:30;7.16;66.76
65378;SHT31;51982;51.042;13.806;2023-04-03T09:50:15;7.00;65.37
65378;SHT31;51982;51.042;13.806;2023-04-03T09:52:46;6.85;65.12
65378;SHT31;51982;51.042;13.806;2023-04-03T09:55:21;7.01;65.36
65378;SHT31;51982;51.042;13.806;2023-04-03T09:57:52;7.11;65.13
65378;SHT31;51982;51.042;13.806;2023-04-03T10:00:25;6.99;63.98
65378;SHT31;51982;51.042;13.806;2023-04-03T10:02:54;6.96;62.60
65378;SHT31;51982;51.042;13.806;2023-04-03T10:05:36;7.14;63.70
65378;SHT31;51982;51.042;13.806;2023-04-03T10:10:44;7.37;62.69
65378;SHT31;51982;51.042;13.806;2023-04-03T10:13:12;7.21;61.86
65378;SHT31;51982;51.042;13.806;2023-04-03T10:15:46;7.08;63.08
65378;SHT31;51982;51.042;13.806;2023-04-03T10:18:31;6.73;63.51
65378;SHT31;51982;51.042;13.806;2023-04-03T10:21:05;6.73;63.09
65378;SHT31;51982;51.042;13.806;2023-04-03T10:26:12;7.07;62.62
65378;SHT31;51982;51.042;13.806;2023-04-03T10:28:45;7.24;62.84
65378;SHT31;51982;51.042;13.806;2023-04-03T10:31:14;7.41;63.02
65378;SHT31;51982;51.042;13.806;2023-04-03T10:34:10;7.44;62.75
65378;SHT31;51982;51.042;13.806;2023-04-03T10:39:48;7.41;60.00
65378;SHT31;51982;51.042;13.806;2023-04-03T10:45:13;7.07;59.15
65378;SHT31;51982;51.042;13.806;2023-04-03T10:48:07;7.32;59.67
65378;SHT31;51982;51.042;13.806;2023-04-03T10:53:31;7.32;59.89
65378;SHT31;51982;51.042;13.806;2023-04-03T10:56:18;7.26;59.72
65378;SHT31;51982;51.042;13.806;2023-04-03T10:58:48;7.40;62.98
65378;SHT31;51982;51.042;13.806;2023-04-03T11:01:19;7.32;61.41
65378;SHT31;51982;51.042;13.806;2023-04-03T11:03:48;7.32;61.96
65378;SHT31;51982;51.042;13.806;2023-04-03T11:06:17;7.31;62.13
65378;SHT31;51982;51.042;13.806;2023-04-03T11:08:48;7.43;60.38
65378;SHT31;51982;51.042;13.806;2023-04-03T11:11:20;7.57;58.98
65378;SHT31;51982;51.042;13.806;2023-04-03T11:13:52;7.45;58.23
65378;SHT31;51982;51.042;13.806;2023-04-03T11:16:24;7.48;59.17
65378;SHT31;51982;51.042;13.806;2023-04-03T11:18:55;7.68;58.25
65378;SHT31;51982;51.042;13.806;2023-04-03T11:21:28;7.67;57.96
65378;SHT31;51982;51.042;13.806;2023-04-03T11:23:57;7.32;55.64
65378;SHT31;51982;51.042;13.806;2023-04-03T11:26:27;7.20;56.94
65378;SHT31;51982;51.042;13.806;2023-04-03T11:29:00;7.31;58.15
65378;SHT31;51982;51.042;13.806;2023-04-03T11:34:35;7.57;58.38
65378;SHT31;51982;51.042;13.806;2023-04-03T11:37:13;7.52;58.03
65378;SHT31;51982;51.042;13.806;2023-04-03T11:39:48;7.57;57.89
65378;SHT31;51982;51.042;13.806;2023-04-03T11:42:16;7.57;58.87
65378;SHT31;51982;51.042;13.806;2023-04-03T11:44:43;7.59;57.91
65378;SHT31;51982;51.042;13.806;2023-04-03T11:47:12;7.64;58.60
65378;SHT31;51982;51.042;13.806;2023-04-03T11:50:03;7.78;58.00
65378;SHT31;51982;51.042;13.806;2023-04-03T11:55:09;7.89;56.32
65378;SHT31;51982;51.042;13.806;2023-04-03T12:00:47;8.00;57.10
65378;SHT31;51982;51.042;13.806;2023-04-03T12:03:32;7.81;58.39
65378;SHT31;51982;51.042;13.806;2023-04-03T12:19:03;7.79;59.41
65378;SHT31;51982;51.042;13.806;2023-04-03T12:26:44;7.52;56.63
65378;SHT31;51982;51.042;13.806;2023-04-03T12:29:21;7.52;57.07
65378;SHT31;51982;51.042;13.806;2023-04-03T12:43:06;7.82;57.08
65378;SHT31;51982;51.042;13.806;2023-04-03T12:45:59;7.81;57.78
65378;SHT31;51982;51.042;13.806;2023-04-03T12:48:29;7.93;57.81
65378;SHT31;51982;51.042;13.806;2023-04-03T12:50:56;7.71;57.80
65378;SHT31;51982;51.042;13.806;2023-04-03T12:53:25;7.67;57.90
65378;SHT31;51982;51.042;13.806;2023-04-03T12:55:56;7.86;58.33
65378;SHT31;51982;51.042;13.806;2023-04-03T12:58:26;7.88;57.78
65378;SHT31;51982;51.042;13.806;2023-04-03T13:01:03;7.95;57.58
65378;SHT31;51982;51.042;13.806;2023-04-03T13:03:29;8.02;57.61
65378;SHT31;51982;51.042;13.806;2023-04-03T13:06:02;7.86;57.41
65378;SHT31;51982;51.042;13.806;2023-04-03T13:08:28;8.07;58.10
65378;SHT31;51982;51.042;13.806;2023-04-03T13:11:07;7.96;57.21
65378;SHT31;51982;51.042;13.806;2023-04-03T13:13:34;7.95;57.14
65378;SHT31;51982;51.042;13.806;2023-04-03T13:16:07;8.19;57.17
65378;SHT31;51982;51.042;13.806;2023-04-03T13:18:35;8.25;56.98
65378;SHT31;51982;51.042;13.806;2023-04-03T13:21:06;8.03;56.41
65378;SHT31;51982;51.042;13.806;2023-04-03T13:23:35;7.88;56.10
65378;SHT31;51982;51.042;13.806;2023-04-03T13:26:01;7.95;56.94
65378;SHT31;51982;51.042;13.806;2023-04-03T13:28:30;7.90;57.01
65378;SHT31;51982;51.042;13.806;2023-04-03T13:33:51;7.90;58.19
65378;SHT31;51982;51.042;13.806;2023-04-03T13:36:20;8.06;57.94
65378;SHT31;51982;51.042;13.806;2023-04-03T13:39:01;7.99;57.43
65378;SHT31;51982;51.042;13.806;2023-04-03T13:41:39;7.69;57.13
65378;SHT31;51982;51.042;13.806;2023-04-03T13:46:50;7.86;57.93
65378;SHT31;51982;51.042;13.806;2023-04-03T13:49:36;7.86;58.07
65378;SHT31;51982;51.042;13.806;2023-04-03T13:52:21;7.85;57.44
65378;SHT31;51982;51.042;13.806;2023-04-03T13:54:53;8.05;57.56
65378;SHT31;51982;51.042;13.806;2023-04-03T13:57:19;8.14;57.19
65378;SHT31;51982;51.042;13.806;2023-04-03T13:59:45;8.16;56.73
65378;SHT31;51982;51.042;13.806;2023-04-03T14:02:16;8.06;57.06
65378;SHT31;51982;51.042;13.806;2023-04-03T14:07:14;8.07;54.50
65378;SHT31;51982;51.042;13.806;2023-04-03T14:09:39;8.07;53.50
65378;SHT31;51982;51.042;13.806;2023-04-03T14:12:30;8.14;55.02
65378;SHT31;51982;51.042;13.806;2023-04-03T14:14:53;7.98;56.35
65378;SHT31;51982;51.042;13.806;2023-04-03T14:17:21;7.50;57.12
65378;SHT31;51982;51.042;13.806;2023-04-03T14:19:49;7.52;57.88
65378;SHT31;51982;51.042;13.806;2023-04-03T14:22:16;7.65;57.80
65378;SHT31;51982;51.042;13.806;2023-04-03T14:24:42;7.82;57.40
65378;SHT31;51982;51.042;13.806;2023-04-03T14:27:20;7.67;56.69
65378;SHT31;51982;51.042;13.806;2023-04-03T14:29:48;7.74;56.79
65378;SHT31;51982;51.042;13.806;2023-04-03T14:32:15;7.75;56.67
65378;SHT31;51982;51.042;13.806;2023-04-03T14:34:41;7.55;56.00
65378;SHT31;51982;51.042;13.806;2023-04-03T14:37:14;7.72;56.44
65378;SHT31;51982;51.042;13.806;2023-04-03T14:39:40;7.77;56.63
65378;SHT31;51982;51.042;13.806;2023-04-03T14:42:05;7.52;56.65
65378;SHT31;51982;51.042;13.806;2023-04-03T14:44:31;7.65;57.27
65378;SHT31;51982;51.042;13.806;2023-04-03T14:46:56;7.74;57.02
65378;SHT31;51982;51.042;13.806;2023-04-03T14:49:25;7.03;58.06
65378;SHT31;51982;51.042;13.806;2023-04-03T14:51:51;7.31;58.21
65378;SHT31;51982;51.042;13.806;2023-04-03T14:54:21;7.40;58.20
65378;SHT31;51982;51.042;13.806;2023-04-03T14:56:50;7.34;58.40
65378;SHT31;51982;51.042;13.806;2023-04-03T14:59:15;7.48;57.92
65378;SHT31;51982;51.042;13.806;2023-04-03T15:01:42;7.55;57.79
65378;SHT31;51982;51.042;13.806;2023-04-03T15:04:15;7.30;56.50
65378;SHT31;51982;51.042;13.806;2023-04-03T15:06:43;7.04;57.76
65378;SHT31;51982;51.042;13.806;2023-04-03T15:09:24;7.18;57.84
65378;SHT31;51982;51.042;13.806;2023-04-03T15:11:51;7.38;58.14
65378;SHT31;51982;51.042;13.806;2023-04-03T15:14:17;7.16;58.00
65378;SHT31;51982;51.042;13.806;2023-04-03T15:16:43;7.11;57.26
65378;SHT31;51982;51.042;13.806;2023-04-03T15:19:09;7.13;57.50
65378;SHT31;51982;51.042;13.806;2023-04-03T15:21:34;7.18;57.17
65378;SHT31;51982;51.042;13.806;2023-04-03T15:24:00;7.27;57.36
65378;SHT31;51982;51.042;13.806;2023-04-03T15:26:26;7.47;57.55
65378;SHT31;51982;51.042;13.806;2023-04-03T15:28:51;7.52;57.09
65378;SHT31;51982;51.042;13.806;2023-04-03T15:31:16;7.57;56.83
65378;SHT31;51982;51.042;13.806;2023-04-03T15:33:41;7.41;56.76
65378;SHT31;51982;51.042;13.806;2023-04-03T15:36:07;7.28;56.15
65378;SHT31;51982;51.042;13.806;2023-04-03T15:38:33;7.35;56.17
65378;SHT31;51982;51.042;13.806;2023-04-03T15:40:58;7.41;56.66
65378;SHT31;51982;51.042;13.806;2023-04-03T15:43:23;7.32;56.77
65378;SHT31;51982;51.042;13.806;2023-04-03T15:45:49;7.26;56.88
65378;SHT31;51982;51.042;13.806;2023-04-03T15:48:15;7.30;56.78
65378;SHT31;51982;51.042;13.806;2023-04-03T15:50:41;7.08;57.02
65378;SHT31;51982;51.042;13.806;2023-04-03T15:53:07;6.87;57.60
65378;SHT31;51982;51.042;13.806;2023-04-03T15:55:34;6.94;57.82
65378;SHT31;51982;51.042;13.806;2023-04-03T15:58:00;6.94;57.72
65378;SHT31;51982;51.042;13.806;2023-04-03T16:00:26;6.87;58.21
65378;SHT31;51982;51.042;13.806;2023-04-03T16:02:54;6.87;58.00
65378;SHT31;51982;51.042;13.806;2023-04-03T16:05:20;6.53;58.18
65378;SHT31;51982;51.042;13.806;2023-04-03T16:07:46;6.43;58.57
65378;SHT31;51982;51.042;13.806;2023-04-03T16:10:13;6.63;58.79
65378;SHT31;51982;51.042;13.806;2023-04-03T16:12:39;6.63;58.59
65378;SHT31;51982;51.042;13.806;2023-04-03T16:15:05;6.75;58.49
65378;SHT31;51982;51.042;13.806;2023-04-03T16:17:32;6.72;58.12
65378;SHT31;51982;51.042;13.806;2023-04-03T16:19:58;6.75;57.83
65378;SHT31;51982;51.042;13.806;2023-04-03T16:22:24;6.80;58.18
65378;SHT31;51982;51.042;13.806;2023-04-03T16:24:50;7.03;58.16
65378;SHT31;51982;51.042;13.806;2023-04-03T16:27:16;6.82;58.22
65378;SHT31;51982;51.042;13.806;2023-04-03T16:29:41;6.86;57.76
65378;SHT31;51982;51.042;13.806;2023-04-03T16:32:07;6.90;57.75
65378;SHT31;51982;51.042;13.806;2023-04-03T16:34:32;6.89;57.84
65378;SHT31;51982;51.042;13.806;2023-04-03T16:36:58;7.03;57.93
65378;SHT31;51982;51.042;13.806;2023-04-03T16:39:23;7.01;57.77
65378;SHT31;51982;51.042;13.806;2023-04-03T16:41:49;6.99;57.80
65378;SHT31;51982;51.042;13.806;2023-04-03T16:44:14;7.03;58.03
65378;SHT31;51982;51.042;13.806;2023-04-03T16:46:39;6.92;58.07
65378;SHT31;51982;51.042;13.806;2023-04-03T16:49:04;6.97;58.33
65378;SHT31;51982;51.042;13.806;2023-04-03T16:51:30;6.96;57.85
65378;SHT31;51982;51.042;13.806;2023-04-03T16:53:56;6.93;58.24
65378;SHT31;51982;51.042;13.806;2023-04-03T16:56:21;7.00;58.21
65378;SHT31;51982;51.042;13.806;2023-04-03T16:58:47;6.87;57.85
65378;SHT31;51982;51.042;13.806;2023-04-03T17:01:14;6.92;58.12
65378;SHT31;51982;51.042;13.806;2023-04-03T17:03:40;6.96;57.77
65378;SHT31;51982;51.042;13.806;2023-04-03T17:06:05;6.89;57.65
65378;SHT31;51982;51.042;13.806;2023-04-03T17:08:31;6.93;57.81
65378;SHT31;51982;51.042;13.806;2023-04-03T17:10:56;6.90;58.02
65378;SHT31;51982;51.042;13.806;2023-04-03T17:13:21;6.75;57.74
65378;SHT31;51982;51.042;13.806;2023-04-03T17:15:47;6.62;57.83
65378;SHT31;51982;51.042;13.806;2023-04-03T17:18:12;6.66;58.10
65378;SHT31;51982;51.042;13.806;2023-04-03T17:20:37;6.66;57.91
65378;SHT31;51982;51.042;13.806;2023-04-03T17:23:04;6.56;57.92
65378;SHT31;51982;51.042;13.806;2023-04-03T17:25:29;6.55;58.04
65378;SHT31;51982;51.042;13.806;2023-04-03T17:27:54;6.62;58.27
65378;SHT31;51982;51.042;13.806;2023-04-03T17:30:21;6.62;58.21
65378;SHT31;51982;51.042;13.806;2023-04-03T17:32:46;6.62;58.25
65378;SHT31;51982;51.042;13.806;2023-04-03T17:35:11;6.68;58.12
65378;SHT31;51982;51.042;13.806;2023-04-03T17:37:36;6.59;58.02
65378;SHT31;51982;51.042;13.806;2023-04-03T17:40:02;6.57;58.08
65378;SHT31;51982;51.042;13.806;2023-04-03T17:42:27;6.61;58.30
65378;SHT31;51982;51.042;13.806;2023-04-03T17:44:55;6.63;58.44
65378;SHT31;51982;51.042;13.806;2023-04-03T17:47:20;6.56;58.47
65378;SHT31;51982;51.042;13.806;2023-04-03T17:49:45;6.55;58.57
65378;SHT31;51982;51.042;13.806;2023-04-03T17:52:11;6.50;58.67
65378;SHT31;51982;51.042;13.806;2023-04-03T17:54:36;6.53;58.66
65378;SHT31;51982;51.042;13.806;2023-04-03T17:57:01;6.52;58.72
65378;SHT31;51982;51.042;13.806;2023-04-03T17:59:28;6.48;58.68
65378;SHT31;51982;51.042;13.806;2023-04-03T18:01:53;6.53;58.73
65378;SHT31;51982;51.042;13.806;2023-04-03T18:04:19;6.52;58.69
65378;SHT31;51982;51.042;13.806;2023-04-03T18:06:50;6.52;58.70
65378;SHT31;51982;51.042;13.806;2023-04-03T18:09:18;6.46;58.76
65378;SHT31;51982;51.042;13.806;2023-04-03T18:11:45;6.52;58.95
65378;SHT31;51982;51.042;13.806;2023-04-03T18:14:15;6.53;59.27
65378;SHT31;51982;51.042;13.806;2023-04-03T18:16:41;6.52;59.13
65378;SHT31;51982;51.042;13.806;2023-04-03T18:19:06;6.50;59.32
65378;SHT31;51982;51.042;13.806;2023-04-03T18:21:33;6.43;58.50
65378;SHT31;51982;51.042;13.806;2023-04-03T18:23:59;6.41;59.05
65378;SHT31;51982;51.042;13.806;2023-04-03T18:26:26;6.39;59.22
65378;SHT31;51982;51.042;13.806;2023-04-03T18:28:56;6.34;59.44
65378;SHT31;51982;51.042;13.806;2023-04-03T18:31:23;6.35;59.63
65378;SHT31;51982;51.042;13.806;2023-04-03T18:33:50;6.29;59.87
65378;SHT31;51982;51.042;13.806;2023-04-03T18:36:18;6.29;60.00
65378;SHT31;51982;51.042;13.806;2023-04-03T18:38:43;6.20;60.19
65378;SHT31;51982;51.042;13.806;2023-04-03T18:41:09;6.17;60.23
65378;SHT31;51982;51.042;13.806;2023-04-03T18:43:35;6.21;60.42
65378;SHT31;51982;51.042;13.806;2023-04-03T18:46:00;6.28;60.24
65378;SHT31;51982;51.042;13.806;2023-04-03T18:48:25;6.32;60.42
65378;SHT31;51982;51.042;13.806;2023-04-03T18:50:51;6.36;60.33
65378;SHT31;51982;51.042;13.806;2023-04-03T18:53:16;6.39;60.51
65378;SHT31;51982;51.042;13.806;2023-04-03T18:55:41;6.42;60.50
65378;SHT31;51982;51.042;13.806;2023-04-03T18:58:07;6.41;60.26
65378;SHT31;51982;51.042;13.806;2023-04-03T19:00:33;6.39;60.22
65378;SHT31;51982;51.042;13.806;2023-04-03T19:02:58;6.38;60.68
65378;SHT31;51982;51.042;13.806;2023-04-03T19:05:24;6.32;60.55
65378;SHT31;51982;51.042;13.806;2023-04-03T19:07:52;6.24;60.45
65378;SHT31;51982;51.042;13.806;2023-04-03T19:10:18;6.11;60.69
65378;SHT31;51982;51.042;13.806;2023-04-03T19:12:45;6.12;60.76
65378;SHT31;51982;51.042;13.806;2023-04-03T19:15:13;6.17;60.91
65378;SHT31;51982;51.042;13.806;2023-04-03T19:17:38;6.14;61.09
65378;SHT31;51982;51.042;13.806;2023-04-03T19:20:04;6.12;61.01
65378;SHT31;51982;51.042;13.806;2023-04-03T19:22:30;6.14;61.14
65378;SHT31;51982;51.042;13.806;2023-04-03T19:24:55;6.11;60.77
65378;SHT31;51982;51.042;13.806;2023-04-03T19:27:20;6.17;60.98
65378;SHT31;51982;51.042;13.806;2023-04-03T19:29:48;6.17;61.07
65378;SHT31;51982;51.042;13.806;2023-04-03T19:32:13;6.10;61.11
65378;SHT31;51982;51.042;13.806;2023-04-03T19:34:39;6.11;61.31
65378;SHT31;51982;51.042;13.806;2023-04-03T19:37:04;6.10;61.40
65378;SHT31;51982;51.042;13.806;2023-04-03T19:39:30;6.08;61.61
65378;SHT31;51982;51.042;13.806;2023-04-03T19:41:57;6.07;61.75
65378;SHT31;51982;51.042;13.806;2023-04-03T19:44:23;6.17;61.68
65378;SHT31;51982;51.042;13.806;2023-04-03T19:46:48;6.17;61.57
65378;SHT31;51982;51.042;13.806;2023-04-03T19:49:13;6.15;61.77
65378;SHT31;51982;51.042;13.806;2023-04-03T19:51:39;6.08;61.47
65378;SHT31;51982;51.042;13.806;2023-04-03T19:54:04;6.12;61.72
65378;SHT31;51982;51.042;13.806;2023-04-03T19:56:30;6.21;61.92
65378;SHT31;51982;51.042;13.806;2023-04-03T19:58:55;6.15;61.81
65378;SHT31;51982;51.042;13.806;2023-04-03T20:01:23;6.04;61.92
65378;SHT31;51982;51.042;13.806;2023-04-03T20:03:50;5.93;61.98
65378;SHT31;51982;51.042;13.806;2023-04-03T20:06:16;5.94;62.09
65378;SHT31;51982;51.042;13.806;2023-04-03T20:08:41;5.93;61.99
65378;SHT31;51982;51.042;13.806;2023-04-03T20:11:07;5.91;62.00
65378;SHT31;51982;51.042;13.806;2023-04-03T20:13:33;5.95;62.26
65378;SHT31;51982;51.042;13.806;2023-04-03T20:16:05;6.00;62.00
65378;SHT31;51982;51.042;13.806;2023-04-03T20:18:33;5.97;61.78
65378;SHT31;51982;51.042;13.806;2023-04-03T20:21:00;5.98;62.02
65378;SHT31;51982;51.042;13.806;2023-04-03T20:23:26;6.00;61.82
65378;SHT31;51982;51.042;13.806;2023-04-03T20:25:53;6.10;62.16
65378;SHT31;51982;51.042;13.806;2023-04-03T20:28:19;6.17;62.31
65378;SHT31;51982;51.042;13.806;2023-04-03T20:30:46;6.02;61.93
65378;SHT31;51982;51.042;13.806;2023-04-03T20:33:14;6.00;62.11
65378;SHT31;51982;51.042;13.806;2023-04-03T20:35:39;5.90;62.33
65378;SHT31;51982;51.042;13.806;2023-04-03T20:38:04;5.93;62.66
65378;SHT31;51982;51.042;13.806;2023-04-03T20:40:32;5.98;62.63
65378;SHT31;51982;51.042;13.806;2023-04-03T20:42:57;6.00;62.84
65378;SHT31;51982;51.042;13.806;2023-04-03T20:45:22;5.97;62.83
65378;SHT31;51982;51.042;13.806;2023-04-03T20:47:48;5.98;62.93
65378;SHT31;51982;51.042;13.806;2023-04-03T20:50:15;5.95;63.21
65378;SHT31;51982;51.042;13.806;2023-04-03T20:52:40;5.90;63.40
65378;SHT31;51982;51.042;13.806;2023-04-03T20:55:06;5.89;63.61
65378;SHT31;51982;51.042;13.806;2023-04-03T20:57:33;5.94;63.85